Terminal Aerodrome Forecast
Issued by NWS Pueblo, CO

Home | Current Version | Previous Version | Text Only | Print | Product List | Glossary On
Versions: 1 2 3 4 5 6 7 8 9 10 11 12 13 14 15 16 17 18
000
FTUS45 KPUB 311720
TAFCOS
TAF
KCOS 311720Z 3118/0118 14012KT P6SM SCT035 SCT070
     FM312100 16012G22KT 6SM -SHRA VCTS OVC040CB
     FM010100 10010KT 6SM -SHRA SCT020 OVC030
     FM010600 02005KT P6SM OVC020
     FM011200 08007KT P6SM SCT020 BKN070=

USA.gov is the U.S. government's official web portal to all federal, state and local government web resources and services.